Time;durP1;ratioP1;P1;durP2;ratioP2;P2;SDS_P1;SDS_P2;PMS_P1;PMS_P2;Temp;Humidity;BMP_temperature;BMP_pressure;BME280_temperature;BME280_humidity;BME280_pressure;Samples;Min_cycle;Max_cycle;Signal;HPM_P1;HPM_P2
2023/04/06 00:00:34;;;;;;;;;;;3.90;99.90;;;;;;5016414;28;19928;-71
2023/04/06 00:02:59;;;;;;;;;;;3.90;99.90;;;;;;5016394;28;20258;-71
2023/04/06 00:05:25;;;;;;;;;;;3.80;99.90;;;;;;5010552;28;20691;-70
2023/04/06 00:07:50;;;;;;;;;;;3.90;99.90;;;;;;5036041;28;19982;-71
2023/04/06 00:10:16;;;;;;;;;;;4.20;99.90;;;;;;5033599;28;20419;-71
2023/04/06 00:12:42;;;;;;;;;;;3.80;99.90;;;;;;5005268;28;19995;-70
2023/04/06 00:15:08;;;;;;;;;;;3.70;99.90;;;;;;5000723;28;19921;-71
2023/04/06 00:17:33;;;;;;;;;;;3.70;99.90;;;;;;5016155;28;20391;-71
2023/04/06 00:19:59;;;;;;;;;;;3.70;99.90;;;;;;4997642;28;20007;-71
2023/04/06 00:22:25;;;;;;;;;;;3.60;99.90;;;;;;5004727;28;19928;-71
2023/04/06 00:24:50;;;;;;;;;;;3.60;99.90;;;;;;5035738;28;19921;-71
2023/04/06 00:27:16;;;;;;;;;;;3.50;99.90;;;;;;5035016;28;19928;-71
2023/04/06 00:29:41;;;;;;;;;;;3.60;99.90;;;;;;5002669;28;19929;-70
2023/04/06 00:32:07;;;;;;;;;;;3.50;99.90;;;;;;4998175;28;19952;-71
2023/04/06 00:34:32;;;;;;;;;;;3.60;99.90;;;;;;5017544;28;19929;-71
2023/04/06 00:36:58;;;;;;;;;;;3.40;99.90;;;;;;5015730;28;19960;-70
2023/04/06 00:39:23;;;;;;;;;;;3.40;99.90;;;;;;5015225;28;19922;-71
2023/04/06 00:41:53;;;;;;;;;;;3.40;99.90;;;;;;4997293;28;19921;-71
2023/04/06 00:44:19;;;;;;;;;;;3.40;99.90;;;;;;4999616;28;19967;-71
2023/04/06 00:46:47;;;;;;;;;;;3.30;99.90;;;;;;5035241;28;19920;-70
2023/04/06 00:49:13;;;;;;;;;;;3.30;99.90;;;;;;5015741;28;19925;-71
2023/04/06 00:51:39;;;;;;;;;;;3.30;99.90;;;;;;5017514;28;19921;-71
2023/04/06 00:54:05;;;;;;;;;;;3.20;99.90;;;;;;5017465;28;19921;-70
2023/04/06 00:56:31;;;;;;;;;;;3.20;99.90;;;;;;5015890;28;19928;-71
2023/04/06 00:58:56;;;;;;;;;;;3.20;99.90;;;;;;5017422;28;19921;-70
2023/04/06 01:01:23;;;;;;;;;;;3.20;99.90;;;;;;5034575;28;20395;-72
2023/04/06 01:03:49;;;;;;;;;;;3.10;99.90;;;;;;5034966;28;20012;-70
2023/04/06 01:06:21;;;;;;;;;;;3.10;99.90;;;;;;5013011;28;19928;-71
2023/04/06 01:08:47;;;;;;;;;;;3.10;99.90;;;;;;5034234;28;19929;-71
2023/04/06 01:11:12;;;;;;;;;;;3.20;99.90;;;;;;5034716;28;19925;-71
2023/04/06 01:13:38;;;;;;;;;;;3.10;99.90;;;;;;5017268;28;19980;-70
2023/04/06 01:16:09;;;;;;;;;;;3.10;99.90;;;;;;5002150;28;19917;-71
2023/04/06 01:18:37;;;;;;;;;;;3.10;99.90;;;;;;5015408;28;19921;-71
2023/04/06 01:21:03;;;;;;;;;;;3.10;99.90;;;;;;4997293;28;19917;-71
2023/04/06 01:23:29;;;;;;;;;;;3.30;99.90;;;;;;4996094;28;19928;-71
2023/04/06 01:25:55;;;;;;;;;;;3.00;99.90;;;;;;5014634;28;20348;-71
2023/04/06 01:28:20;;;;;;;;;;;3.00;99.90;;;;;;4997718;28;19917;-71
2023/04/06 01:30:46;;;;;;;;;;;3.00;99.90;;;;;;5013731;28;19925;-71
2023/04/06 01:33:11;;;;;;;;;;;2.90;99.90;;;;;;5014478;28;19928;-71
2023/04/06 01:35:37;;;;;;;;;;;2.90;99.90;;;;;;4997238;28;19948;-71
2023/04/06 01:38:03;;;;;;;;;;;2.90;99.90;;;;;;4997890;28;19924;-71
2023/04/06 01:40:31;;;;;;;;;;;2.90;99.90;;;;;;5016041;28;19921;-71
2023/04/06 01:43:00;;;;;;;;;;;3.10;99.90;;;;;;4996668;28;20443;-71
2023/04/06 01:45:25;;;;;;;;;;;2.80;99.90;;;;;;4996094;28;20027;-71
2023/04/06 01:47:51;;;;;;;;;;;2.90;99.90;;;;;;4997629;28;20345;-71
2023/04/06 01:50:16;;;;;;;;;;;2.90;99.90;;;;;;5015579;28;20288;-71
2023/04/06 01:52:42;;;;;;;;;;;2.80;99.90;;;;;;5033575;28;19966;-70
2023/04/06 01:55:08;;;;;;;;;;;2.80;99.90;;;;;;5033556;28;20008;-71
2023/04/06 01:57:34;;;;;;;;;;;2.80;99.90;;;;;;5033997;28;19921;-71
2023/04/06 02:00:03;;;;;;;;;;;2.80;99.90;;;;;;5014706;28;19932;-70
2023/04/06 02:02:28;;;;;;;;;;;2.80;99.90;;;;;;5012875;28;20019;-71
2023/04/06 02:04:54;;;;;;;;;;;2.80;99.90;;;;;;4995613;28;20345;-72
2023/04/06 02:07:19;;;;;;;;;;;2.70;99.90;;;;;;5013997;28;19921;-71
2023/04/06 02:09:45;;;;;;;;;;;2.70;99.90;;;;;;5029873;28;20348;-71
2023/04/06 02:12:10;;;;;;;;;;;4.10;99.90;;;;;;5032660;28;19931;-71
2023/04/06 02:14:36;;;;;;;;;;;3.90;99.90;;;;;;5033998;28;19943;-70
2023/04/06 02:17:01;;;;;;;;;;;2.70;99.90;;;;;;5033536;28;20283;-71
2023/04/06 02:19:27;;;;;;;;;;;2.60;99.90;;;;;;5002737;28;20632;-70
2023/04/06 02:21:53;;;;;;;;;;;2.60;99.90;;;;;;5029370;28;19925;-71
2023/04/06 02:24:19;;;;;;;;;;;2.70;99.90;;;;;;5015711;28;19921;-71
2023/04/06 02:26:44;;;;;;;;;;;2.70;99.90;;;;;;5032797;28;19921;-71
2023/04/06 02:29:10;;;;;;;;;;;2.70;99.90;;;;;;5033132;28;20710;-71
2023/04/06 02:31:36;;;;;;;;;;;2.60;99.90;;;;;;5004045;28;19922;-70
2023/04/06 02:34:01;;;;;;;;;;;2.60;99.90;;;;;;4995102;28;19933;-71
2023/04/06 02:36:27;;;;;;;;;;;2.60;99.90;;;;;;4996229;28;19926;-71
2023/04/06 02:38:52;;;;;;;;;;;2.60;99.90;;;;;;5015558;28;19929;-70
2023/04/06 02:41:21;;;;;;;;;;;2.50;99.90;;;;;;5014814;28;19947;-71
2023/04/06 02:43:46;;;;;;;;;;;3.50;99.90;;;;;;5015493;28;19964;-71
2023/04/06 02:46:12;;;;;;;;;;;2.40;99.90;;;;;;5028445;28;19959;-70
2023/04/06 02:48:37;;;;;;;;;;;2.50;99.90;;;;;;5021042;28;19917;-71
2023/04/06 02:51:03;;;;;;;;;;;2.40;99.90;;;;;;5002225;28;19947;-71
2023/04/06 02:53:28;;;;;;;;;;;2.40;99.90;;;;;;4995591;28;19948;-69
2023/04/06 02:55:55;;;;;;;;;;;2.50;99.90;;;;;;5016809;28;19921;-71
2023/04/06 02:58:21;;;;;;;;;;;2.40;99.90;;;;;;5033044;28;19932;-71
2023/04/06 03:00:46;;;;;;;;;;;2.40;99.90;;;;;;5032897;28;20004;-71
2023/04/06 03:03:12;;;;;;;;;;;2.40;99.90;;;;;;5031820;28;19928;-71
2023/04/06 03:05:37;;;;;;;;;;;2.50;99.90;;;;;;5030667;28;19925;-71
2023/04/06 03:08:03;;;;;;;;;;;2.50;99.90;;;;;;4994287;28;19928;-71
2023/04/06 03:10:28;;;;;;;;;;;2.40;99.90;;;;;;4995738;28;19921;-71
2023/04/06 03:12:54;;;;;;;;;;;2.50;99.90;;;;;;4995999;28;19936;-69
2023/04/06 03:15:19;;;;;;;;;;;2.40;99.90;;;;;;5021632;28;20376;-70
2023/04/06 03:17:45;;;;;;;;;;;2.40;99.90;;;;;;5005216;28;19921;-70
2023/04/06 03:20:11;;;;;;;;;;;2.80;99.90;;;;;;5000565;28;19971;-70
2023/04/06 03:22:36;;;;;;;;;;;2.30;99.90;;;;;;5012332;28;20416;-71
2023/04/06 03:25:02;;;;;;;;;;;2.30;99.90;;;;;;4997138;28;20388;-70
2023/04/06 03:27:27;;;;;;;;;;;2.30;99.90;;;;;;5013965;28;19999;-70
2023/04/06 03:29:53;;;;;;;;;;;2.30;99.90;;;;;;5014068;28;19925;-71
2023/04/06 03:32:19;;;;;;;;;;;2.30;99.90;;;;;;5015025;28;20289;-70
2023/04/06 03:34:44;;;;;;;;;;;2.30;99.90;;;;;;5032082;28;19920;-70
2023/04/06 03:37:10;;;;;;;;;;;3.00;99.90;;;;;;5014207;28;20120;-70
2023/04/06 03:39:36;;;;;;;;;;;2.20;99.90;;;;;;5015091;28;19947;-71
2023/04/06 03:42:01;;;;;;;;;;;2.80;99.90;;;;;;5014605;28;20018;-70
2023/04/06 03:44:27;;;;;;;;;;;2.20;99.90;;;;;;5014609;28;19925;-71
2023/04/06 03:46:52;;;;;;;;;;;2.20;99.90;;;;;;5018986;28;20369;-70
2023/04/06 03:49:18;;;;;;;;;;;2.20;99.90;;;;;;5013213;28;19929;-70
2023/04/06 03:51:43;;;;;;;;;;;2.10;99.90;;;;;;4994839;28;19968;-70
2023/04/06 03:54:09;;;;;;;;;;;2.60;99.90;;;;;;5012557;28;20435;-70
2023/04/06 03:56:35;;;;;;;;;;;2.20;99.90;;;;;;4996111;28;19948;-70
2023/04/06 03:59:01;;;;;;;;;;;3.20;99.90;;;;;;4994591;28;19976;-71
2023/04/06 04:01:27;;;;;;;;;;;2.30;99.90;;;;;;5012985;28;19922;-71
2023/04/06 04:03:53;;;;;;;;;;;2.20;99.90;;;;;;4995261;28;19988;-71
2023/04/06 04:06:18;;;;;;;;;;;2.20;99.90;;;;;;5012596;28;20000;-71
2023/04/06 04:08:44;;;;;;;;;;;2.20;99.90;;;;;;5012246;28;20419;-71
2023/04/06 04:11:09;;;;;;;;;;;2.20;99.90;;;;;;5032123;28;20012;-70
2023/04/06 04:13:35;;;;;;;;;;;2.30;99.90;;;;;;5033177;28;19921;-70
2023/04/06 04:16:00;;;;;;;;;;;2.30;99.90;;;;;;5034372;28;19921;-70
2023/04/06 04:18:26;;;;;;;;;;;2.30;99.90;;;;;;5016867;28;19928;-70
2023/04/06 04:20:52;;;;;;;;;;;2.60;99.90;;;;;;5019409;28;19921;-70
2023/04/06 04:23:17;;;;;;;;;;;2.30;99.90;;;;;;5038684;28;19925;-70
2023/04/06 04:25:43;;;;;;;;;;;2.30;99.90;;;;;;5019758;28;19943;-70
2023/04/06 04:28:08;;;;;;;;;;;2.40;99.90;;;;;;5020322;28;19921;-70
2023/04/06 04:30:34;;;;;;;;;;;2.30;99.90;;;;;;5019771;28;20361;-70
2023/04/06 04:33:00;;;;;;;;;;;2.30;99.90;;;;;;5016859;28;19943;-71
2023/04/06 04:35:28;;;;;;;;;;;2.30;99.90;;;;;;5016673;28;19921;-70
2023/04/06 04:37:54;;;;;;;;;;;2.30;99.90;;;;;;5001332;28;19921;-70
2023/04/06 04:40:20;;;;;;;;;;;2.30;99.90;;;;;;5038503;28;19951;-69
2023/04/06 04:42:46;;;;;;;;;;;2.40;99.90;;;;;;5039159;28;20269;-70
2023/04/06 04:45:11;;;;;;;;;;;2.40;99.90;;;;;;5038559;28;19917;-70
2023/04/06 04:47:37;;;;;;;;;;;2.40;99.90;;;;;;5031223;28;19926;-69
2023/04/06 04:50:03;;;;;;;;;;;2.40;99.90;;;;;;5016934;28;19925;-70
2023/04/06 04:52:28;;;;;;;;;;;2.40;99.90;;;;;;5022394;28;19922;-70
2023/04/06 04:54:54;;;;;;;;;;;2.40;99.90;;;;;;5015320;28;19960;-69
2023/04/06 04:57:19;;;;;;;;;;;2.30;99.90;;;;;;5023378;28;20288;-69
2023/04/06 04:59:45;;;;;;;;;;;2.40;99.90;;;;;;5038577;28;19917;-69
2023/04/06 05:02:10;;;;;;;;;;;2.40;99.90;;;;;;5016188;28;19925;-70
2023/04/06 05:04:36;;;;;;;;;;;2.40;99.90;;;;;;5025236;28;19968;-68
2023/04/06 05:07:05;;;;;;;;;;;2.50;99.90;;;;;;4997364;28;19921;-70
2023/04/06 05:09:31;;;;;;;;;;;2.50;99.90;;;;;;5015255;28;19928;-70
2023/04/06 05:11:57;;;;;;;;;;;2.50;99.90;;;;;;5014573;28;19921;-69
2023/04/06 05:14:22;;;;;;;;;;;2.50;99.90;;;;;;5005245;28;20339;-69
2023/04/06 05:16:48;;;;;;;;;;;2.50;99.90;;;;;;5016482;28;19928;-69
2023/04/06 05:19:13;;;;;;;;;;;3.10;99.90;;;;;;5017016;28;19916;-70
2023/04/06 05:21:39;;;;;;;;;;;2.60;99.90;;;;;;5034207;28;20292;-70
2023/04/06 05:24:04;;;;;;;;;;;2.60;99.90;;;;;;4999224;28;19925;-70
2023/04/06 05:26:30;;;;;;;;;;;2.70;99.90;;;;;;4997597;28;20254;-69
2023/04/06 05:28:55;;;;;;;;;;;3.40;99.90;;;;;;4996099;28;20389;-70
2023/04/06 05:31:21;;;;;;;;;;;2.80;99.90;;;;;;5014670;28;20003;-70
2023/04/06 05:33:56;;;;;;;;;;;2.80;99.90;;;;;;5030126;28;20407;-71
2023/04/06 05:36:21;;;;;;;;;;;2.90;99.90;;;;;;4996407;28;19966;-70
2023/04/06 05:38:47;;;;;;;;;;;2.90;99.90;;;;;;4996793;28;20000;-69
2023/04/06 05:41:13;;;;;;;;;;;2.90;99.90;;;;;;4996942;28;19961;-69
2023/04/06 05:43:38;;;;;;;;;;;3.00;99.90;;;;;;5013776;28;19929;-70
2023/04/06 05:46:04;;;;;;;;;;;3.00;99.90;;;;;;5013353;28;19917;-71
2023/04/06 05:48:32;;;;;;;;;;;3.20;99.90;;;;;;5034298;28;19943;-70
2023/04/06 05:50:58;;;;;;;;;;;3.20;99.90;;;;;;5032845;28;20373;-71
2023/04/06 05:53:26;;;;;;;;;;;4.20;99.90;;;;;;5033923;28;19921;-71
2023/04/06 05:55:51;;;;;;;;;;;3.30;99.90;;;;;;5033484;28;20015;-71
2023/04/06 05:58:17;;;;;;;;;;;4.00;99.90;;;;;;4996440;28;20021;-70
2023/04/06 06:00:42;;;;;;;;;;;3.50;99.90;;;;;;4996475;28;19953;-69
2023/04/06 06:03:08;;;;;;;;;;;3.50;99.90;;;;;;5027722;28;19921;-72
2023/04/06 06:05:34;;;;;;;;;;;3.50;99.90;;;;;;5002322;28;19929;-72
2023/04/06 06:08:01;;;;;;;;;;;3.60;99.90;;;;;;5014576;28;20377;-73
2023/04/06 06:10:27;;;;;;;;;;;3.70;99.90;;;;;;5033806;28;19972;-73
2023/04/06 06:12:53;;;;;;;;;;;3.70;99.90;;;;;;4996548;28;20337;-73
2023/04/06 06:15:21;;;;;;;;;;;3.90;99.90;;;;;;4999192;28;19987;-75
2023/04/06 06:17:47;;;;;;;;;;;3.90;99.90;;;;;;5014171;28;19925;-76
2023/04/06 06:20:13;;;;;;;;;;;3.90;99.90;;;;;;5016815;28;20419;-75
2023/04/06 06:22:40;;;;;;;;;;;4.00;99.90;;;;;;5013405;28;19925;-74
2023/04/06 06:25:05;;;;;;;;;;;4.10;99.90;;;;;;4994896;28;20288;-74
2023/04/06 06:27:31;;;;;;;;;;;4.20;99.90;;;;;;4996210;28;19928;-77
2023/04/06 06:29:56;;;;;;;;;;;4.20;99.90;;;;;;5001612;28;19971;-71
2023/04/06 06:32:22;;;;;;;;;;;4.30;99.90;;;;;;5014931;28;20000;-73
2023/04/06 06:34:47;;;;;;;;;;;5.30;99.90;;;;;;5007243;28;20029;-70
2023/04/06 06:37:13;;;;;;;;;;;4.30;99.90;;;;;;5011644;28;19920;-70
2023/04/06 06:39:39;;;;;;;;;;;4.40;99.90;;;;;;5026068;28;19976;-71
2023/04/06 06:42:07;;;;;;;;;;;4.50;99.90;;;;;;5013241;28;20008;-75
2023/04/06 06:44:33;;;;;;;;;;;4.60;99.90;;;;;;4995577;28;19991;-74
2023/04/06 06:46:58;;;;;;;;;;;4.70;99.90;;;;;;5011313;28;19944;-72
2023/04/06 06:49:24;;;;;;;;;;;5.00;99.90;;;;;;5027611;28;19928;-72
2023/04/06 06:51:50;;;;;;;;;;;5.70;99.90;;;;;;5031208;28;19921;-71
2023/04/06 06:54:15;;;;;;;;;;;5.40;99.90;;;;;;5030246;28;19974;-71
2023/04/06 06:56:41;;;;;;;;;;;5.60;99.90;;;;;;5028825;28;20288;-74
2023/04/06 06:59:09;;;;;;;;;;;5.90;99.90;;;;;;5019421;28;20038;-74
2023/04/06 07:01:35;;;;;;;;;;;6.00;99.90;;;;;;5014840;28;19976;-71
2023/04/06 07:04:01;;;;;;;;;;;6.90;99.90;;;;;;5012035;28;19944;-73
2023/04/06 07:06:27;;;;;;;;;;;6.10;99.90;;;;;;4995652;28;20258;-71
2023/04/06 07:08:52;;;;;;;;;;;6.10;99.90;;;;;;5010801;28;19943;-73
2023/04/06 07:11:18;;;;;;;;;;;6.20;99.90;;;;;;5004992;28;19975;-72
2023/04/06 07:13:43;;;;;;;;;;;6.30;99.90;;;;;;5002071;28;19921;-73
2023/04/06 07:16:09;;;;;;;;;;;6.30;99.90;;;;;;5008797;28;19929;-71
2023/04/06 07:18:34;;;;;;;;;;;6.30;99.90;;;;;;4996869;28;20048;-71
2023/04/06 07:21:00;;;;;;;;;;;6.40;99.90;;;;;;5017303;28;19992;-74
2023/04/06 07:23:26;;;;;;;;;;;6.50;99.90;;;;;;4994982;28;19964;-71
2023/04/06 07:25:53;;;;;;;;;;;6.50;99.90;;;;;;5014526;28;19929;-70
2023/04/06 07:28:18;;;;;;;;;;;6.60;99.90;;;;;;4994349;28;19921;-71
2023/04/06 07:30:44;;;;;;;;;;;7.30;99.90;;;;;;5000174;28;19933;-72
2023/04/06 07:33:09;;;;;;;;;;;7.00;99.90;;;;;;5014566;28;20803;-69
2023/04/06 07:35:36;;;;;;;;;;;7.30;99.90;;;;;;5029584;28;19936;-69
2023/04/06 07:38:02;;;;;;;;;;;7.80;99.30;;;;;;5011464;28;20377;-70
2023/04/06 07:40:27;;;;;;;;;;;8.00;98.80;;;;;;5017335;28;19970;-70
2023/04/06 07:42:53;;;;;;;;;;;7.90;98.40;;;;;;5001328;28;19952;-69
2023/04/06 07:45:19;;;;;;;;;;;8.00;98.50;;;;;;5039557;28;20364;-69
2023/04/06 07:47:45;;;;;;;;;;;8.10;98.20;;;;;;5021506;28;20281;-69
2023/04/06 07:50:11;;;;;;;;;;;8.30;98.00;;;;;;5008025;28;19925;-70
2023/04/06 07:52:36;;;;;;;;;;;8.40;98.10;;;;;;5017009;28;20336;-70
2023/04/06 07:55:02;;;;;;;;;;;8.80;97.40;;;;;;4998890;28;19926;-70
2023/04/06 07:57:28;;;;;;;;;;;9.30;96.60;;;;;;4998008;28;19925;-70
2023/04/06 07:59:53;;;;;;;;;;;9.80;95.40;;;;;;5021373;28;20361;-70
2023/04/06 08:02:19;;;;;;;;;;;10.30;94.70;;;;;;5013457;28;19974;-71
2023/04/06 08:04:45;;;;;;;;;;;10.90;94.00;;;;;;5042425;28;19921;-70
2023/04/06 08:07:10;;;;;;;;;;;11.30;92.50;;;;;;5007243;28;19995;-70
2023/04/06 08:09:36;;;;;;;;;;;12.00;91.70;;;;;;4999764;28;19925;-70
2023/04/06 08:12:01;;;;;;;;;;;11.70;91.80;;;;;;5009192;28;19999;-70
2023/04/06 08:14:27;;;;;;;;;;;11.90;91.20;;;;;;5034101;28;20039;-70
2023/04/06 08:16:52;;;;;;;;;;;12.10;91.10;;;;;;5025723;28;19918;-70
2023/04/06 08:19:18;;;;;;;;;;;12.60;90.80;;;;;;5015332;28;19929;-69
2023/04/06 08:21:47;;;;;;;;;;;12.70;88.40;;;;;;5029708;28;20008;-71
2023/04/06 08:24:13;;;;;;;;;;;12.70;88.10;;;;;;5010945;28;20357;-70
2023/04/06 08:26:38;;;;;;;;;;;12.30;88.50;;;;;;5007898;28;19975;-70
2023/04/06 08:29:07;;;;;;;;;;;12.00;89.50;;;;;;5001304;28;19925;-70
2023/04/06 08:31:33;;;;;;;;;;;11.80;90.90;;;;;;5002413;28;19925;-69
2023/04/06 08:33:59;;;;;;;;;;;11.10;91.40;;;;;;5008230;28;19921;-70
2023/04/06 08:36:24;;;;;;;;;;;10.90;91.70;;;;;;5001509;28;19982;-70
2023/04/06 08:38:50;;;;;;;;;;;11.10;91.80;;;;;;4996948;28;20493;-69
2023/04/06 08:41:19;;;;;;;;;;;10.70;91.90;;;;;;5011898;28;19922;-69
2023/04/06 08:43:44;;;;;;;;;;;10.70;91.90;;;;;;5034208;28;20380;-70
2023/04/06 08:46:11;;;;;;;;;;;10.50;92.50;;;;;;5027731;28;19929;-70
2023/04/06 08:48:38;;;;;;;;;;;10.50;92.50;;;;;;5019751;28;19928;-70
2023/04/06 08:51:03;;;;;;;;;;;10.50;92.60;;;;;;5015327;28;20348;-71
2023/04/06 08:53:29;;;;;;;;;;;10.70;93.00;;;;;;5012501;28;20012;-70
2023/04/06 08:55:56;;;;;;;;;;;10.90;93.70;;;;;;5026818;28;19972;-72
2023/04/06 08:58:22;;;;;;;;;;;11.00;93.70;;;;;;4998834;28;19980;-71
2023/04/06 09:00:48;;;;;;;;;;;11.10;92.80;;;;;;5019278;28;19925;-71
2023/04/06 09:03:14;;;;;;;;;;;11.20;92.20;;;;;;5018082;28;20351;-72
2023/04/06 09:05:40;;;;;;;;;;;11.20;91.90;;;;;;5002856;28;20012;-70
2023/04/06 09:08:06;;;;;;;;;;;11.30;91.90;;;;;;5016884;28;20035;-71
2023/04/06 09:10:32;;;;;;;;;;;11.40;92.30;;;;;;5009193;28;19921;-71
2023/04/06 09:13:07;;;;;;;;;;;11.50;92.10;;;;;;5025222;28;19921;-71
2023/04/06 09:15:33;;;;;;;;;;;11.60;91.60;;;;;;5017158;28;20008;-71
2023/04/06 09:17:58;;;;;;;;;;;11.70;92.10;;;;;;5032826;28;19953;-72
2023/04/06 09:20:30;;;;;;;;;;;12.10;91.90;;;;;;5011690;28;19971;-73
2023/04/06 09:22:56;;;;;;;;;;;12.50;90.00;;;;;;5018517;28;19922;-73
2023/04/06 09:25:23;;;;;;;;;;;12.70;90.10;;;;;;5011055;28;20008;-71
2023/04/06 09:27:49;;;;;;;;;;;12.80;89.40;;;;;;5023866;28;19960;-72
2023/04/06 09:30:16;;;;;;;;;;;12.90;88.20;;;;;;5033640;28;19917;-72
2023/04/06 09:32:46;;;;;;;;;;;12.80;88.70;;;;;;5016551;28;19925;-71
2023/04/06 09:35:12;;;;;;;;;;;13.00;87.80;;;;;;5014197;28;19924;-71
2023/04/06 09:37:37;;;;;;;;;;;13.20;87.10;;;;;;5028384;28;20300;-71
2023/04/06 09:40:07;;;;;;;;;;;13.30;87.40;;;;;;5026135;28;19982;-72
2023/04/06 09:42:32;;;;;;;;;;;13.20;87.10;;;;;;5016633;28;19921;-70
2023/04/06 09:44:58;;;;;;;;;;;13.20;87.20;;;;;;5014401;28;19928;-71
2023/04/06 09:47:25;;;;;;;;;;;13.30;87.60;;;;;;5014705;28;19925;-71
2023/04/06 09:49:53;;;;;;;;;;;13.10;87.50;;;;;;5005701;28;19922;-71
2023/04/06 09:52:19;;;;;;;;;;;13.80;87.70;;;;;;4996733;28;19921;-70
2023/04/06 09:54:45;;;;;;;;;;;13.20;86.80;;;;;;5015550;28;19921;-71
2023/04/06 09:57:14;;;;;;;;;;;13.10;87.60;;;;;;5023948;28;20379;-72
2023/04/06 09:59:59;;;;;;;;;;;12.90;87.90;;;;;;5024861;28;19965;-71
2023/04/06 10:02:24;;;;;;;;;;;12.80;88.30;;;;;;5009236;28;19921;-70
2023/04/06 10:04:55;;;;;;;;;;;12.60;90.00;;;;;;5028918;28;19924;-71
2023/04/06 10:07:21;;;;;;;;;;;12.50;88.70;;;;;;5029081;28;19920;-72
2023/04/06 10:09:47;;;;;;;;;;;12.60;89.80;;;;;;5015507;28;19929;-72
2023/04/06 10:12:13;;;;;;;;;;;12.70;88.50;;;;;;5010461;28;19921;-70
2023/04/06 10:14:39;;;;;;;;;;;12.90;88.10;;;;;;4993451;28;19922;-71
2023/04/06 10:17:04;;;;;;;;;;;12.90;88.80;;;;;;4991604;28;19921;-70
2023/04/06 10:19:44;;;;;;;;;;;13.30;89.20;;;;;;5010749;28;20336;-71
2023/04/06 10:22:12;;;;;;;;;;;13.50;90.10;;;;;;5010117;28;19921;-71
2023/04/06 10:24:37;;;;;;;;;;;13.90;87.40;;;;;;4998032;28;20459;-72
2023/04/06 10:27:05;;;;;;;;;;;13.70;87.10;;;;;;5021852;28;19928;-71
2023/04/06 10:29:43;;;;;;;;;;;13.60;86.90;;;;;;5019695;28;19928;-71
2023/04/06 10:32:08;;;;;;;;;;;13.50;86.80;;;;;;5025698;28;20010;-71
2023/04/06 10:34:35;;;;;;;;;;;13.40;87.20;;;;;;5013190;28;20227;-71
2023/04/06 10:37:10;;;;;;;;;;;13.30;88.90;;;;;;5029867;28;19921;-72
2023/04/06 10:39:45;;;;;;;;;;;13.20;88.20;;;;;;5026996;28;20012;-72
2023/04/06 10:42:10;;;;;;;;;;;13.20;90.00;;;;;;5004763;28;19932;-72
2023/04/06 10:44:42;;;;;;;;;;;13.30;88.50;;;;;;5013162;28;19921;-73
2023/04/06 10:47:15;;;;;;;;;;;13.30;89.90;;;;;;5015216;28;19944;-72
2023/04/06 10:49:41;;;;;;;;;;;13.30;89.10;;;;;;5003190;28;19928;-71
2023/04/06 10:52:06;;;;;;;;;;;13.50;89.70;;;;;;5006044;28;19921;-71
2023/04/06 10:54:32;;;;;;;;;;;13.60;88.80;;;;;;5029428;28;19921;-72
2023/04/06 10:56:58;;;;;;;;;;;13.60;87.70;;;;;;5028020;28;19928;-71
2023/04/06 10:59:25;;;;;;;;;;;13.50;88.20;;;;;;5032029;28;20369;-71
2023/04/06 11:01:50;;;;;;;;;;;13.40;88.40;;;;;;5033135;28;19921;-70
2023/04/06 11:04:17;;;;;;;;;;;13.30;89.80;;;;;;5015480;28;20395;-71
2023/04/06 11:06:46;;;;;;;;;;;13.30;89.90;;;;;;5014820;28;20419;-73
2023/04/06 11:09:22;;;;;;;;;;;13.40;89.50;;;;;;5017159;28;19921;-72
2023/04/06 11:11:47;;;;;;;;;;;13.60;90.00;;;;;;4995631;28;20020;-72
2023/04/06 11:14:13;;;;;;;;;;;13.70;89.50;;;;;;4994748;28;20365;-72
2023/04/06 11:16:39;;;;;;;;;;;13.60;88.10;;;;;;5013092;28;19922;-72
2023/04/06 11:19:06;;;;;;;;;;;13.60;90.10;;;;;;5012752;28;19964;-72
2023/04/06 11:21:36;;;;;;;;;;;13.50;90.60;;;;;;5012214;28;20439;-72
2023/04/06 11:24:08;;;;;;;;;;;13.50;90.30;;;;;;5016855;28;19921;-72
2023/04/06 11:26:54;;;;;;;;;;;13.50;90.00;;;;;;4999645;28;19943;-72
2023/04/06 11:29:21;;;;;;;;;;;13.50;90.00;;;;;;5016444;28;19922;-72
2023/04/06 11:31:59;;;;;;;;;;;13.50;89.30;;;;;;5016879;28;19980;-72
2023/04/06 11:34:25;;;;;;;;;;;13.30;90.20;;;;;;4998412;28;19925;-72
2023/04/06 11:36:56;;;;;;;;;;;13.00;91.00;;;;;;4998924;28;19963;-72
2023/04/06 11:39:23;;;;;;;;;;;13.10;91.20;;;;;;5016514;28;20012;-72
2023/04/06 11:41:53;;;;;;;;;;;13.00;91.20;;;;;;5016230;28;19929;-72
2023/04/06 11:44:34;;;;;;;;;;;13.10;91.70;;;;;;5001006;28;20373;-73
2023/04/06 11:47:03;;;;;;;;;;;13.00;92.60;;;;;;5020377;28;19922;-72
2023/04/06 11:49:29;;;;;;;;;;;13.00;92.30;;;;;;5015923;28;20059;-72
2023/04/06 11:51:55;;;;;;;;;;;13.20;92.40;;;;;;5016478;28;19921;-72
2023/04/06 11:54:34;;;;;;;;;;;13.20;93.10;;;;;;5015193;28;19943;-71
2023/04/06 11:57:00;;;;;;;;;;;13.10;93.10;;;;;;5018971;28;19956;-75
2023/04/06 11:59:27;;;;;;;;;;;12.80;94.00;;;;;;5036712;28;19921;-75
2023/04/06 12:01:55;;;;;;;;;;;12.90;94.00;;;;;;5035463;28;19928;-74
2023/04/06 12:04:21;;;;;;;;;;;12.90;94.80;;;;;;5028356;28;19928;-75
2023/04/06 12:06:46;;;;;;;;;;;12.90;97.00;;;;;;5017363;28;19921;-72
2023/04/06 12:09:12;;;;;;;;;;;13.00;96.70;;;;;;4999012;28;19975;-71
2023/04/06 12:11:37;;;;;;;;;;;13.10;96.70;;;;;;4997918;28;19925;-74
2023/04/06 12:14:05;;;;;;;;;;;13.00;98.00;;;;;;5001843;28;20254;-73
2023/04/06 12:16:31;;;;;;;;;;;12.90;97.80;;;;;;5016116;28;19921;-72
2023/04/06 12:18:56;;;;;;;;;;;12.70;98.10;;;;;;5019174;28;19975;-72
2023/04/06 12:21:22;;;;;;;;;;;12.60;98.10;;;;;;4997377;28;19925;-72
2023/04/06 12:23:50;;;;;;;;;;;12.60;98.30;;;;;;5014570;28;19929;-72
2023/04/06 12:26:15;;;;;;;;;;;12.50;99.90;;;;;;5028093;28;19927;-71
2023/04/06 12:28:41;;;;;;;;;;;12.30;99.50;;;;;;5017943;28;19921;-71
2023/04/06 12:31:06;;;;;;;;;;;12.10;99.90;;;;;;5025695;28;20380;-70
2023/04/06 12:33:39;;;;;;;;;;;12.00;99.90;;;;;;5033067;28;20015;-72
2023/04/06 12:36:10;;;;;;;;;;;12.00;99.90;;;;;;5006191;28;19964;-72
2023/04/06 12:38:39;;;;;;;;;;;11.80;99.90;;;;;;5026470;28;19921;-71
2023/04/06 12:41:05;;;;;;;;;;;11.80;99.90;;;;;;5009772;28;19921;-72
2023/04/06 12:43:31;;;;;;;;;;;11.70;99.90;;;;;;5017328;28;19928;-73
2023/04/06 12:45:56;;;;;;;;;;;11.70;99.90;;;;;;5030902;28;19917;-73
2023/04/06 12:48:22;;;;;;;;;;;11.70;99.90;;;;;;5030327;28;19925;-71
2023/04/06 12:51:00;;;;;;;;;;;11.60;99.90;;;;;;5019912;28;19979;-72
2023/04/06 12:53:26;;;;;;;;;;;11.50;99.90;;;;;;5018286;28;19975;-70
2023/04/06 12:55:53;;;;;;;;;;;11.40;99.90;;;;;;5027132;28;20028;-71
2023/04/06 12:58:22;;;;;;;;;;;11.50;99.90;;;;;;5014911;28;19921;-71
2023/04/06 13:00:48;;;;;;;;;;;11.40;99.90;;;;;;5014418;28;19936;-70
2023/04/06 13:03:14;;;;;;;;;;;11.10;99.90;;;;;;4996847;28;19933;-69
2023/04/06 13:05:43;;;;;;;;;;;11.20;99.90;;;;;;5019056;28;20018;-72
2023/04/06 13:08:09;;;;;;;;;;;11.10;99.90;;;;;;5015439;28;19922;-71
2023/04/06 13:10:34;;;;;;;;;;;10.90;99.90;;;;;;5040798;28;19983;-70
2023/04/06 13:13:00;;;;;;;;;;;10.70;99.90;;;;;;5002274;28;19928;-72
2023/04/06 13:15:25;;;;;;;;;;;10.60;99.90;;;;;;5015641;28;19971;-69
2023/04/06 13:17:51;;;;;;;;;;;10.60;99.90;;;;;;5024320;28;19956;-71
2023/04/06 13:20:16;;;;;;;;;;;10.60;99.90;;;;;;5022753;28;19960;-69
2023/04/06 13:22:42;;;;;;;;;;;10.50;99.90;;;;;;5023417;28;20016;-68
2023/04/06 13:25:08;;;;;;;;;;;10.30;99.90;;;;;;5022138;28;19928;-70
2023/04/06 13:27:35;;;;;;;;;;;10.40;99.90;;;;;;5014232;28;19921;-71
2023/04/06 13:30:04;;;;;;;;;;;10.30;99.90;;;;;;5007310;28;20376;-70
2023/04/06 13:32:30;;;;;;;;;;;10.30;99.90;;;;;;5025480;28;19979;-71
2023/04/06 13:34:57;;;;;;;;;;;10.20;99.90;;;;;;4998409;28;20358;-71
2023/04/06 13:37:23;;;;;;;;;;;10.30;99.90;;;;;;5018719;28;19968;-72
2023/04/06 13:39:48;;;;;;;;;;;10.10;99.90;;;;;;5018918;28;20023;-71
2023/04/06 13:42:14;;;;;;;;;;;10.20;99.90;;;;;;5027275;28;20004;-71
2023/04/06 13:44:39;;;;;;;;;;;10.00;99.90;;;;;;4996118;28;20276;-70
2023/04/06 13:47:05;;;;;;;;;;;9.80;99.90;;;;;;5004621;28;20296;-70
2023/04/06 13:49:31;;;;;;;;;;;9.70;99.90;;;;;;5012843;28;19921;-71
2023/04/06 13:51:56;;;;;;;;;;;9.60;99.90;;;;;;5006297;28;20407;-71
2023/04/06 13:54:22;;;;;;;;;;;9.50;99.90;;;;;;5014451;28;19929;-69
2023/04/06 13:56:47;;;;;;;;;;;9.40;99.90;;;;;;5007229;28;19974;-70
2023/04/06 13:59:13;;;;;;;;;;;9.20;99.90;;;;;;5003457;28;19921;-70
2023/04/06 14:01:38;;;;;;;;;;;9.20;99.90;;;;;;5023200;28;20004;-71
2023/04/06 14:04:04;;;;;;;;;;;9.20;99.90;;;;;;5030872;28;20010;-69
2023/04/06 14:06:30;;;;;;;;;;;9.20;99.90;;;;;;5003366;28;20059;-70
2023/04/06 14:08:56;;;;;;;;;;;9.50;99.90;;;;;;5021500;28;19925;-71
2023/04/06 14:11:22;;;;;;;;;;;9.10;99.90;;;;;;5017614;28;19922;-71
2023/04/06 14:13:47;;;;;;;;;;;9.00;99.90;;;;;;5024950;28;20404;-72
2023/04/06 14:16:13;;;;;;;;;;;8.90;99.90;;;;;;5023891;28;20296;-72
2023/04/06 14:18:39;;;;;;;;;;;8.80;99.90;;;;;;5010603;28;19928;-72